Flint Hill, North Carolina
Current Conditions -  °F | °C
As of 9:55 AM on Thursday 30 Oct 2014 (Local Time) from KVUJ Reporting Station
Clear Clear  
Wind Chill: 58°   Ceiling: Unl
Heat Index: 58°   Visibility: 10mi
Dew Point: 42°   Wind: 7mph
Humidity: 54%   Direction: 20°NNE
Pressure: 30.11"   Gusts: NA
Location:  35.4086°N, 79.9566°W
Report Text: KVUJ 301355Z AUTO 02006KT 10SM CLR 15/06 A3011 RMK AO2 T01470055
Loading
Personal Weather Stations






























Interactive Weather Map
Tropical Storm Tracking
New forecast layout! Learn more

10-Day Weather Forecast

Advertisements
Track Severe Weather on mobile